Seaside, Oregon
Current Conditions -  °F | °C
As of 11:55 AM on Saturday 20 Dec 2014 (Local Time) from KAST Reporting Station
Light Rain Light Rain  
Wind Chill: 56°   Ceiling: 600
Heat Index: 56°   Visibility: 5mi
Dew Point: 54°   Wind: 15mph
Humidity: 93%   Direction: 210°SSW
Pressure: 29.56"   Gusts: 24mph
Location:  45.99°N, 123.91°W
Report Text: KAST 201955Z AUTO 21013G21KT 5SM -RA BR OVC006 13/12 A2956 RMK AO2 PK WND 21028/1905 SLP010 P0009 T01330122 $
Loading
Personal Weather Stations






























Interactive Weather Map New forecast layout! Learn more

10-Day Weather Forecast

Advertisements
Track Severe Weather on mobile